Time;durP1;ratioP1;P1;durP2;ratioP2;P2;SDS_P1;SDS_P2;PMS_P1;PMS_P2;Temp;Humidity;BMP_temperature;BMP_pressure;BME280_temperature;BME280_humidity;BME280_pressure;Samples;Min_cycle;Max_cycle;Signal;HPM_P1;HPM_P2
2022/06/24 00:00:02;;;;;;;5.00;4.50;;;;;;;16.98;72.44;99186.66;4922701;29;20457;-91
2022/06/24 00:02:28;;;;;;;6.78;4.82;;;;;;;17.09;72.05;99192.59;4922434;29;20023;-91
2022/06/24 00:04:54;;;;;;;5.53;4.30;;;;;;;17.11;72.07;99187.66;4922916;29;20034;-91
2022/06/24 00:07:20;;;;;;;6.82;4.70;;;;;;;16.99;72.07;99176.56;4922683;29;20017;-92
2022/06/24 00:09:45;;;;;;;7.40;4.40;;;;;;;17.11;71.49;99185.72;4922456;29;20027;-92
2022/06/24 00:12:15;;;;;;;5.15;4.25;;;;;;;17.08;71.73;99172.78;4937867;29;20042;-91
2022/06/24 00:14:41;;;;;;;10.70;4.60;;;;;;;17.07;71.79;99183.97;4938323;29;20019;-91
2022/06/24 00:17:10;;;;;;;7.47;4.63;;;;;;;17.01;72.42;99186.03;4938227;29;20038;-92
2022/06/24 00:19:52;;;;;;;8.20;5.05;;;;;;;17.05;72.67;99192.44;4922110;29;20035;-92
2022/06/24 00:22:18;;;;;;;7.55;4.40;;;;;;;16.93;72.98;99173.19;4924158;29;20423;-92
2022/06/24 00:24:43;;;;;;;7.15;4.82;;;;;;;16.94;72.72;99191.94;4924540;29;20027;-91
2022/06/24 00:27:22;;;;;;;4.88;4.25;;;;;;;16.98;72.36;99180.44;4926719;29;20121;-91
2022/06/24 00:29:49;;;;;;;7.03;4.80;;;;;;;17.02;71.81;99181.41;4926928;29;20042;-92
2022/06/24 00:32:14;;;;;;;5.05;4.55;;;;;;;16.96;71.96;99188.91;4926837;29;20054;-92
2022/06/24 00:34:40;;;;;;;8.35;4.70;;;;;;;17.00;71.89;99191.78;4926149;29;20027;-92
2022/06/24 00:37:25;;;;;;;7.63;4.57;;;;;;;17.04;71.42;99187.31;4925975;29;20019;-92
2022/06/24 00:40:02;;;;;;;6.32;4.25;;;;;;;17.06;71.29;99174.22;4927044;29;20402;-91
2022/06/24 00:42:28;;;;;;;7.47;3.90;;;;;;;17.04;71.02;99174.53;4928259;29;20478;-92
2022/06/24 00:44:59;;;;;;;6.45;4.80;;;;;;;17.15;71.35;99186.69;4925964;29;20030;-92
2022/06/24 00:47:25;;;;;;;4.93;3.83;;;;;;;17.09;71.13;99173.56;4958015;29;20114;-92
2022/06/24 00:49:51;;;;;;;7.60;4.22;;;;;;;17.13;71.18;99183.50;4926013;29;20031;-92
2022/06/24 00:52:16;;;;;;;7.78;4.65;;;;;;;17.16;71.00;99185.59;4925821;29;20035;-91
2022/06/24 00:54:43;;;;;;;7.05;4.40;;;;;;;17.12;71.47;99183.81;4925842;29;20031;-92
2022/06/24 00:57:08;;;;;;;7.20;4.25;;;;;;;17.17;70.93;99186.38;4926209;29;20125;-91
2022/06/24 00:59:34;;;;;;;7.18;4.10;;;;;;;17.19;71.20;99186.88;4926095;29;20047;-92
2022/06/24 01:02:04;;;;;;;6.65;4.40;;;;;;;17.27;70.62;99207.88;4925997;29;20493;-92
2022/06/24 01:04:31;;;;;;;7.30;4.50;;;;;;;17.13;71.23;99188.94;4926063;29;20058;-91
2022/06/24 01:06:56;;;;;;;7.88;4.28;;;;;;;17.14;71.17;99187.84;4925898;29;20061;-92
2022/06/24 01:09:22;;;;;;;6.85;4.25;;;;;;;17.16;71.34;99198.38;4926146;29;20023;-91
2022/06/24 01:11:47;;;;;;;5.07;4.00;;;;;;;17.15;71.21;99189.41;4925407;29;20031;-91
2022/06/24 01:14:13;;;;;;;5.45;4.40;;;;;;;17.33;71.17;99208.53;4926270;29;20031;-92
2022/06/24 01:16:38;;;;;;;8.88;4.68;;;;;;;17.30;71.22;99209.13;4925541;29;20062;-92
2022/06/24 01:19:09;;;;;;;6.22;4.10;;;;;;;17.35;71.26;99217.16;4942142;29;20027;-92
2022/06/24 01:21:47;;;;;;;7.32;4.30;;;;;;;17.24;70.91;99203.03;4926327;29;20039;-92
2022/06/24 01:24:21;;;;;;;9.68;4.20;;;;;;;17.32;70.88;99218.59;4926262;29;20122;-92
2022/06/24 01:26:51;;;;;;;5.57;3.85;;;;;;;17.29;70.49;99202.91;4925423;29;20114;-92
2022/06/24 01:29:16;;;;;;;4.60;3.88;;;;;;;17.25;70.96;99218.25;4940799;29;20114;-92
2022/06/24 01:31:48;;;;;;;16.38;4.00;;;;;;;17.17;70.99;99213.59;4924726;29;20027;-92
2022/06/24 01:34:13;;;;;;;10.95;4.60;;;;;;;17.02;71.32;99190.34;4925806;29;20114;-92
2022/06/24 01:36:40;;;;;;;8.45;3.90;;;;;;;16.96;71.29;99188.91;4923717;29;20071;-93
2022/06/24 01:39:06;;;;;;;8.18;4.28;;;;;;;16.84;71.79;99183.25;4924836;29;20042;-92
2022/06/24 01:41:31;;;;;;;10.27;4.60;;;;;;;16.74;72.29;99195.97;4924160;29;20027;-93
2022/06/24 01:43:57;;;;;;;10.43;4.53;;;;;;;16.73;72.20;99194.38;4924024;29;20035;-92
2022/06/24 01:46:23;;;;;;;7.55;4.05;;;;;;;16.76;72.24;99182.06;4939968;29;20049;-93
2022/06/24 01:48:48;;;;;;;8.82;4.43;;;;;;;16.69;72.46;99177.09;4924155;29;20497;-92
2022/06/24 01:51:14;;;;;;;9.00;4.47;;;;;;;16.63;71.98;99164.75;4924319;29;20035;-91
2022/06/24 01:53:40;;;;;;;8.32;4.30;;;;;;;16.87;71.75;99183.44;4923980;29;20029;-92
2022/06/24 01:56:05;;;;;;;7.30;4.43;;;;;;;16.98;71.01;99186.66;4939897;29;20019;-92
2022/06/24 01:58:31;;;;;;;6.30;4.18;;;;;;;17.07;69.92;99186.69;4923869;29;20074;-91
2022/06/24 02:00:56;;;;;;;5.72;4.00;;;;;;;17.21;69.59;99205.63;4924807;29;20034;-92
2022/06/24 02:03:22;;;;;;;5.80;3.70;;;;;;;17.18;68.75;99198.84;4923900;29;20031;-92
2022/06/24 02:05:47;;;;;;;5.75;3.28;;;;;;;17.17;68.22;99192.63;4924163;29;20034;-92
2022/06/24 02:08:13;;;;;;;4.57;3.50;;;;;;;17.17;67.77;99200.00;4923988;29;20067;-92
2022/06/24 02:13:29;;;;;;;4.78;3.42;;;;;;;17.26;67.30;99210.88;4943001;29;20039;-92
2022/06/24 02:15:55;;;;;;;6.93;3.90;;;;;;;17.30;67.11;99211.84;4926701;29;20082;-92
2022/06/24 02:18:20;;;;;;;6.35;3.42;;;;;;;17.09;66.82;99179.00;4939983;29;20035;-92
2022/06/24 02:20:46;;;;;;;5.25;3.33;;;;;;;17.13;67.19;99197.09;4923809;29;20085;-92
2022/06/24 02:23:11;;;;;;;6.97;4.22;;;;;;;17.15;67.18;99210.38;4924406;29;20038;-92
2022/06/24 02:25:37;;;;;;;6.72;3.33;;;;;;;17.10;67.30;99215.97;4924794;29;20042;-91
2022/06/24 02:28:02;;;;;;;7.68;3.67;;;;;;;16.87;68.26;99209.81;4924220;29;20019;-91
2022/06/24 02:30:28;;;;;;;5.70;3.58;;;;;;;16.85;68.06;99198.44;4924268;29;20023;-92
2022/06/24 02:32:53;;;;;;;7.32;4.20;;;;;;;16.84;67.92;99186.78;4924304;29;20093;-92
2022/06/24 02:35:19;;;;;;;8.35;4.07;;;;;;;16.93;67.45;99179.47;4924493;29;20030;-93
2022/06/24 02:37:44;;;;;;;5.00;3.65;;;;;;;16.79;68.08;99178.75;4940239;29;20114;-92
2022/06/24 02:42:56;;;;;;;8.30;3.70;;;;;;;16.72;68.59;99189.25;4942450;29;20038;-92
2022/06/24 02:45:21;;;;;;;10.02;3.80;;;;;;;16.63;69.03;99183.78;4940382;29;20470;-92
2022/06/24 02:47:47;;;;;;;5.13;3.83;;;;;;;16.66;69.04;99193.22;4923810;29;20041;-92
2022/06/24 02:50:12;;;;;;;7.72;3.90;;;;;;;16.63;69.42;99180.28;4923395;29;20035;-92
2022/06/24 02:52:37;;;;;;;4.47;3.70;;;;;;;16.59;69.39;99182.81;4923333;29;20034;-92
2022/06/24 02:55:06;;;;;;;4.93;4.05;;;;;;;16.50;69.93;99181.97;4923098;29;20031;-91
2022/06/24 02:57:31;;;;;;;7.93;3.55;;;;;;;16.54;69.28;99182.94;4923340;29;20027;-92
2022/06/24 02:59:56;;;;;;;4.13;3.40;;;;;;;16.45;69.11;99169.28;4938660;29;20062;-92
2022/06/24 03:02:22;;;;;;;6.65;3.88;;;;;;;16.44;69.11;99185.94;4923179;29;20035;-95
2022/06/24 03:04:47;;;;;;;6.22;3.88;;;;;;;16.47;69.46;99198.88;4923529;29;20090;-95
2022/06/24 03:07:13;;;;;;;8.65;3.95;;;;;;;16.45;69.27;99185.59;4923418;29;20027;-95
2022/06/24 03:09:38;;;;;;;6.03;4.20;;;;;;;16.31;69.18;99179.44;4923777;29;20038;-95
2022/06/24 03:12:04;;;;;;;7.28;3.83;;;;;;;16.52;69.30;99204.22;4923245;29;20508;-92
2022/06/24 03:14:32;;;;;;;5.22;3.47;;;;;;;16.31;69.93;99188.44;4923573;29;20067;-96
2022/06/24 03:16:58;;;;;;;6.80;4.07;;;;;;;16.33;69.97;99205.22;4923223;29;20031;-95
2022/06/24 03:19:25;;;;;;;8.80;4.10;;;;;;;16.23;70.41;99208.19;4923277;29;20042;-95
2022/06/24 03:21:50;;;;;;;6.38;3.90;;;;;;;16.28;69.95;99210.78;4939316;29;20027;-95
2022/06/24 03:24:16;;;;;;;7.00;3.88;;;;;;;16.28;69.91;99207.25;4923174;29;20042;-96
2022/06/24 03:26:41;;;;;;;8.88;4.00;;;;;;;16.25;70.17;99216.00;4923427;29;20054;-95
2022/06/24 03:29:07;;;;;;;11.75;3.90;;;;;;;16.50;69.06;99215.38;4922516;29;20409;-94
2022/06/24 03:31:32;;;;;;;5.32;3.22;;;;;;;16.54;68.33;99210.13;4922878;29;20437;-94
2022/06/24 03:33:58;;;;;;;4.15;3.20;;;;;;;16.60;68.15;99208.06;4922965;29;20470;-96
2022/06/24 03:36:24;;;;;;;5.53;3.70;;;;;;;16.76;67.70;99212.78;4922625;29;20027;-95
2022/06/24 03:38:50;;;;;;;8.07;3.38;;;;;;;16.63;68.32;99202.00;4923796;29;20038;-95
2022/06/24 03:41:16;;;;;;;7.13;3.70;;;;;;;16.69;68.40;99223.31;4922642;29;20035;-94
2022/06/24 03:43:41;;;;;;;5.35;3.83;;;;;;;16.54;68.88;99197.34;4922498;29;20019;-96
2022/06/24 03:46:07;;;;;;;6.55;3.78;;;;;;;16.68;68.54;99212.75;4922588;29;20097;-93
2022/06/24 03:48:32;;;;;;;8.38;4.55;;;;;;;16.57;69.12;99223.09;4923446;29;20473;-94
2022/06/24 03:51:01;;;;;;;8.35;4.10;;;;;;;16.37;70.02;99216.25;4924464;29;20082;-96
2022/06/24 03:53:27;;;;;;;9.07;3.83;;;;;;;16.66;69.28;99234.00;4923647;29;20019;-94
2022/06/24 03:55:52;;;;;;;10.65;4.20;;;;;;;16.74;68.59;99227.81;4923174;29;20525;-96
2022/06/24 03:58:18;;;;;;;5.63;3.80;;;;;;;16.73;68.82;99224.28;4923352;29;20593;-95
2022/06/24 04:00:44;;;;;;;8.77;4.93;;;;;;;16.49;69.28;99205.59;4923626;29;20477;-96
2022/06/24 04:03:09;;;;;;;11.93;4.47;;;;;;;16.44;69.15;99210.41;4924460;29;20035;-94
2022/06/24 04:05:35;;;;;;;14.90;3.97;;;;;;;16.51;68.17;99206.09;4923772;29;20437;-95
2022/06/24 04:08:00;;;;;;;9.73;4.20;;;;;;;16.53;69.01;99228.34;4924255;29;20039;-95
2022/06/24 04:10:26;;;;;;;6.45;3.90;;;;;;;16.24;69.53;99220.66;4922482;29;20062;-94
2022/06/24 04:12:52;;;;;;;8.85;4.03;;;;;;;16.05;70.04;99193.69;4923258;29;20102;-95
2022/06/24 04:15:18;;;;;;;24.80;5.20;;;;;;;16.03;69.98;99198.63;4925038;29;20031;-95
2022/06/24 04:17:44;;;;;;;9.10;4.40;;;;;;;16.14;70.73;99213.56;4925103;29;20470;-95
2022/06/24 04:20:10;;;;;;;7.30;4.25;;;;;;;16.23;69.72;99215.50;4922952;29;20047;-95
2022/06/24 04:22:39;;;;;;;8.05;4.93;;;;;;;16.40;68.99;99223.00;4923926;29;20034;-94
2022/06/24 04:25:06;;;;;;;15.80;5.95;;;;;;;16.26;68.93;99198.63;4927897;29;20042;-95
2022/06/24 04:27:32;;;;;;;8.23;5.78;;;;;;;16.61;68.38;99229.50;4934206;29;20039;-96
2022/06/24 04:30:08;;;;;;;7.75;5.70;;;;;;;16.47;68.17;99204.31;4941775;29;20050;-96
2022/06/24 04:32:34;;;;;;;8.43;4.88;;;;;;;16.75;67.77;99221.25;4933745;29;20058;-96
2022/06/24 04:35:07;;;;;;;8.65;6.13;;;;;;;16.73;67.71;99227.00;4944433;29;20444;-95
2022/06/24 04:37:37;;;;;;;10.10;5.22;;;;;;;16.75;66.40;99232.94;4930082;29;20118;-96
2022/06/24 04:40:06;;;;;;;5.57;3.70;;;;;;;16.54;66.91;99224.53;4923346;29;20173;-94
2022/06/24 04:42:32;;;;;;;8.32;4.65;;;;;;;16.52;66.92;99223.22;4923885;29;20035;-92
2022/06/24 04:44:58;;;;;;;5.57;3.40;;;;;;;16.68;66.63;99224.41;4926856;29;20038;-95
2022/06/24 04:47:23;;;;;;;6.20;3.40;;;;;;;16.65;67.10;99238.63;4923710;29;20031;-94
2022/06/24 04:49:49;;;;;;;11.40;4.45;;;;;;;16.74;66.64;99252.28;4924254;29;20035;-95
2022/06/24 04:52:15;;;;;;;12.13;3.88;;;;;;;16.66;66.65;99234.00;4923219;29;20039;-95
2022/06/24 04:54:42;;;;;;;15.13;4.75;;;;;;;17.13;65.98;99259.66;4924029;29;20024;-96
2022/06/24 04:57:07;;;;;;;6.60;4.32;;;;;;;16.94;66.35;99245.53;4925107;29;20495;-95
2022/06/24 04:59:33;;;;;;;6.78;4.10;;;;;;;17.04;66.66;99264.28;4923347;29;20055;-94
2022/06/24 05:01:58;;;;;;;21.55;4.18;;;;;;;16.99;66.27;99248.09;4923013;29;20527;-92
2022/06/24 05:04:24;;;;;;;8.40;3.53;;;;;;;17.07;66.27;99260.13;4924582;29;20094;-95
2022/06/24 05:06:49;;;;;;;5.43;3.72;;;;;;;16.80;66.70;99231.19;4924463;29;20043;-96
2022/06/24 05:09:18;;;;;;;6.63;3.42;;;;;;;16.88;66.57;99257.66;4923068;29;20410;-93
2022/06/24 05:12:12;;;;;;;12.90;4.00;;;;;;;17.23;65.73;99285.81;4928387;29;20063;-96
2022/06/24 05:15:09;;;;;;;8.77;3.97;;;;;;;17.50;65.16;99281.25;4935782;29;20046;-96
2022/06/24 05:17:35;;;;;;;7.90;3.75;;;;;;;17.37;64.64;99256.56;4963098;28;20395;-96
2022/06/24 05:20:01;;;;;;;11.25;4.13;;;;;;;17.57;64.53;99285.09;4947017;29;20035;-96
2022/06/24 05:22:27;;;;;;;5.65;3.42;;;;;;;17.58;63.72;99258.69;4930007;29;20050;-95
2022/06/24 05:24:56;;;;;;;5.47;3.30;;;;;;;17.79;62.78;99261.59;4943906;29;20024;-95
2022/06/24 05:27:21;;;;;;;5.32;3.42;;;;;;;17.85;62.88;99278.63;4943354;29;20110;-95
2022/06/24 05:29:47;;;;;;;31.60;8.23;;;;;;;17.91;62.77;99288.22;4927757;29;20027;-96
2022/06/24 05:32:21;;;;;;;10.27;4.18;;;;;;;17.92;62.44;99266.09;4929932;29;20505;-93
2022/06/24 05:34:47;;;;;;;7.00;4.15;;;;;;;18.09;62.31;99291.75;4930622;29;20026;-94
2022/06/24 05:37:15;;;;;;;11.70;5.20;;;;;;;18.11;62.25;99278.59;4943288;28;20026;-96
2022/06/24 05:39:43;;;;;;;7.68;4.60;;;;;;;18.03;62.39;99273.97;4950386;28;20027;-90
2022/06/24 05:42:09;;;;;;;11.50;4.85;;;;;;;18.20;62.29;99279.41;4945912;28;20102;-94
2022/06/24 05:44:36;;;;;;;10.75;4.95;;;;;;;18.33;62.66;99289.34;4949055;29;20486;-93
2022/06/24 05:47:01;;;;;;;9.10;4.60;;;;;;;18.47;62.02;99299.25;4934937;28;20062;-93
2022/06/24 05:49:37;;;;;;;9.38;4.43;;;;;;;18.35;61.58;99278.91;4944707;28;20110;-95
2022/06/24 05:55:02;;;;;;;12.48;5.07;;;;;;;18.50;61.64;99299.41;4963535;28;20093;-94
2022/06/24 05:55:05;;;;;;;16.98;5.38;;;;;;;18.61;60.78;99277.28;4968764;28;20029;-96
2022/06/24 05:57:34;;;;;;;5.78;4.18;;;;;;;18.87;60.28;99290.88;4952157;28;20058;-95
2022/06/24 06:06:48;;;;;;;13.88;5.35;;;;;;;19.15;59.94;99272.13;4973003;28;20103;-96
2022/06/24 06:09:14;;;;;;;16.80;6.72;;;;;;;19.21;59.84;99278.22;4948472;28;20092;-96
2022/06/24 06:11:43;;;;;;;10.32;5.72;;;;;;;19.23;59.12;99284.94;4952027;28;20035;-96
2022/06/24 06:14:09;;;;;;;12.00;5.78;;;;;;;19.26;58.58;99265.19;4963226;28;20042;-95
2022/06/24 06:16:37;;;;;;;14.35;6.25;;;;;;;19.55;58.55;99280.78;4946205;28;20067;-96
2022/06/24 06:19:13;;;;;;;9.85;5.97;;;;;;;19.77;57.32;99284.34;4961992;28;20042;-96
2022/06/24 06:21:45;;;;;;;10.60;7.50;;;;;;;19.87;56.29;99278.50;4966253;28;20077;-95
2022/06/24 06:24:11;;;;;;;14.30;6.78;;;;;;;19.60;58.41;99279.78;4946600;28;20027;-95
2022/06/24 06:26:36;;;;;;;14.38;8.60;;;;;;;19.67;57.86;99268.31;4967383;28;20524;-95
2022/06/24 06:29:05;;;;;;;16.02;7.57;;;;;;;19.87;57.83;99267.56;4960158;28;20477;-93
2022/06/24 06:31:35;;;;;;;17.65;7.55;;;;;;;19.77;57.94;99257.03;4944536;28;20086;-96
2022/06/24 06:34:01;;;;;;;16.38;7.97;;;;;;;19.88;57.40;99266.44;4946439;28;20057;-96
2022/06/24 06:36:35;;;;;;;19.23;8.90;;;;;;;19.98;57.55;99279.72;4962251;28;20493;-92
2022/06/24 06:39:01;;;;;;;11.82;8.05;;;;;;;19.94;57.49;99270.59;4962389;28;20473;-95
2022/06/24 06:41:29;;;;;;;15.18;8.57;;;;;;;20.11;57.11;99277.84;4961484;28;20022;-95
2022/06/24 06:43:54;;;;;;;18.63;7.55;;;;;;;20.08;57.71;99283.16;4945812;28;20034;-94
2022/06/24 06:46:20;;;;;;;16.83;8.52;;;;;;;20.09;57.77;99285.56;4943668;28;20030;-91
2022/06/24 06:48:45;;;;;;;15.13;7.28;;;;;;;20.11;57.26;99277.84;4944137;28;20026;-92
2022/06/24 06:51:16;;;;;;;14.20;7.38;;;;;;;20.16;56.94;99254.97;4960075;28;20034;-93
2022/06/24 06:53:42;;;;;;;38.45;16.38;;;;;;;20.27;56.83;99277.22;4945586;28;20030;-94
2022/06/24 06:56:38;;;;;;;;;;;;;;;;;;;;;
2022/06/24 06:59:08;;;;;;;34.35;15.38;;;;;;;20.50;56.77;99251.09;5081937;23;20145;-93
2022/06/24 07:01:33;;;;;;;13.77;7.50;;;;;;;20.54;56.04;99246.56;4945129;28;20066;-96
2022/06/24 07:03:59;;;;;;;25.90;8.27;;;;;;;20.79;55.43;99271.25;4945265;28;20073;-93
2022/06/24 07:10:52;;;;;;;;;;;;;;;;;;;;;
2022/06/24 07:13:19;;;;;;;11.68;5.93;;;;;;;20.89;55.45;99248.91;4945465;28;20127;-95
2022/06/24 07:15:45;;;;;;;17.75;6.57;;;;;;;21.08;55.28;99261.25;4943933;28;20113;-94
2022/06/24 07:18:10;;;;;;;17.95;9.10;;;;;;;21.26;54.73;99261.84;4943000;28;20035;-94
2022/06/24 07:20:39;;;;;;;19.08;13.48;;;;;;;21.36;54.59;99251.22;4947902;28;20038;-95
2022/06/24 07:23:05;;;;;;;24.38;10.38;;;;;;;21.51;55.89;99244.25;4959669;28;20042;-92
2022/06/24 07:25:33;;;;;;;10.98;6.00;;;;;;;21.75;54.33;99261.81;4958442;28;20122;-90
2022/06/24 07:28:08;;;;;;;114.25;87.47;;;;;;;21.91;54.74;99253.66;4944850;28;20043;-92
2022/06/24 07:30:34;;;;;;;21.48;12.10;;;;;;;22.02;54.54;99242.97;4945080;28;20031;-92
2022/06/24 07:32:59;;;;;;;13.43;7.47;;;;;;;22.25;53.91;99255.06;4942949;28;20101;-92
2022/06/24 07:35:25;;;;;;;12.25;5.75;;;;;;;22.38;53.54;99226.41;4956460;28;20022;-93
2022/06/24 07:37:57;;;;;;;11.65;4.75;;;;;;;22.66;53.06;99225.56;4926786;28;20035;-92
2022/06/24 07:40:25;;;;;;;11.95;6.35;;;;;;;22.95;52.76;99224.34;4942940;29;20086;-93
2022/06/24 07:43:03;;;;;;;11.65;5.30;;;;;;;23.42;52.07;99252.91;4927657;29;20063;-93
2022/06/24 07:45:28;;;;;;;9.65;5.05;;;;;;;23.66;51.00;99242.81;4927957;29;20028;-93
2022/06/24 07:47:56;;;;;;;9.27;4.45;;;;;;;23.90;50.02;99233.56;4923774;29;20521;-90
2022/06/24 07:50:22;;;;;;;10.48;5.30;;;;;;;24.03;49.92;99236.94;4939098;29;20050;-92
2022/06/24 07:52:47;;;;;;;7.95;5.03;;;;;;;24.15;49.79;99236.81;4939169;29;20035;-90
2022/06/24 07:57:57;;;;;;;13.35;5.45;;;;;;;24.36;49.03;99219.91;4941422;29;20077;-92
2022/06/24 08:00:27;;;;;;;7.35;4.18;;;;;;;24.63;49.21;99231.81;4924206;29;20044;-90
2022/06/24 08:02:53;;;;;;;7.35;4.45;;;;;;;24.52;50.47;99228.09;4941531;29;20023;-92
2022/06/24 08:05:19;;;;;;;10.30;5.93;;;;;;;24.51;50.34;99212.72;4927536;28;20119;-91
2022/06/24 08:07:44;;;;;;;6.88;3.78;;;;;;;24.62;49.68;99219.25;4950046;28;20097;-91
2022/06/24 08:10:10;;;;;;;7.05;4.10;;;;;;;24.74;49.34;99227.31;4934436;29;20031;-92
2022/06/24 08:12:38;;;;;;;10.38;4.55;;;;;;;24.76;49.94;99216.72;4953994;29;20035;-90
2022/06/24 08:15:04;;;;;;;13.07;4.68;;;;;;;24.70;49.93;99209.16;4938029;29;20025;-92
2022/06/24 08:17:29;;;;;;;6.82;3.83;;;;;;;24.67;50.33;99207.91;4937965;29;20110;-91
2022/06/24 08:19:55;;;;;;;7.00;3.88;;;;;;;24.85;50.44;99221.19;4940495;29;20038;-92
2022/06/24 08:22:21;;;;;;;5.60;3.35;;;;;;;24.76;50.61;99210.44;4942358;28;20053;-95
2022/06/24 08:24:46;;;;;;;10.73;5.10;;;;;;;24.84;50.92;99212.16;4938801;29;20082;-89
2022/06/24 08:27:12;;;;;;;8.13;4.07;;;;;;;24.91;50.86;99226.03;4954699;29;20055;-95
2022/06/24 08:29:39;;;;;;;9.23;3.95;;;;;;;25.14;50.36;99225.19;4925752;29;20023;-93
2022/06/24 08:32:24;;;;;;;;;;;;;;;;;;;;;
2022/06/24 08:37:47;;;;;;;5.68;3.80;;;;;;;25.07;50.77;99228.66;5039084;23;20046;-93
2022/06/24 08:50:28;;;;;;;7.63;4.38;;;;;;;25.54;49.23;99221.09;2396202;23;20055;-93
2022/06/24 08:53:08;;;;;;;7.70;3.42;;;;;;;25.63;49.17;99218.03;4956571;29;20060;-96
2022/06/24 08:55:44;;;;;;;9.10;3.75;;;;;;;25.70;49.28;99227.22;4950488;29;20027;-93
2022/06/24 08:58:11;;;;;;;9.38;3.42;;;;;;;25.71;48.84;99228.00;4943189;29;20023;-92
2022/06/24 09:00:37;;;;;;;50.40;29.45;;;;;;;25.66;48.86;99237.41;4959011;29;20039;-93
2022/06/24 09:03:05;;;;;;;8.48;4.40;;;;;;;25.87;48.74;99247.91;4925916;29;20054;-93
2022/06/24 09:05:37;;;;;;;8.60;4.05;;;;;;;25.74;48.77;99219.00;4942695;29;20023;-94
2022/06/24 09:08:17;;;;;;;7.10;3.22;;;;;;;25.78;48.33;99209.59;4944791;29;20031;-93
2022/06/24 09:14:25;;;;;;;8.35;4.03;;;;;;;25.72;49.41;99227.63;4960961;29;20034;-96
2022/06/24 09:16:51;;;;;;;12.40;5.25;;;;;;;25.73;48.78;99198.09;4899350;29;20411;-94
2022/06/24 09:19:22;;;;;;;7.38;4.57;;;;;;;25.78;47.93;99209.59;4901330;29;20091;-93
2022/06/24 09:21:50;;;;;;;6.28;4.72;;;;;;;25.94;48.80;99194.81;4918401;29;20036;-93
2022/06/24 09:24:20;;;;;;;6.47;3.58;;;;;;;26.11;47.40;99204.50;4932073;29;20375;-95
2022/06/24 09:27:29;;;;;;;6.28;3.60;;;;;;;25.97;47.74;99205.91;4923270;29;20028;-91
2022/06/24 09:30:29;;;;;;;5.43;3.80;;;;;;;25.94;46.52;99203.91;4923430;29;20054;-94
2022/06/24 09:32:57;;;;;;;50.55;42.88;;;;;;;25.68;47.08;99190.94;4945963;29;20039;-96
2022/06/24 09:35:53;;;;;;;6.07;3.45;;;;;;;25.66;47.80;99186.97;4947078;29;20030;-94
2022/06/24 09:38:27;;;;;;;7.93;3.17;;;;;;;25.70;46.94;99196.09;4929565;29;20031;-93
2022/06/24 09:41:05;;;;;;;5.43;3.30;;;;;;;25.77;46.19;99204.44;4925875;29;20035;-94
2022/06/24 09:44:11;;;;;;;7.35;3.22;;;;;;;25.78;45.68;99176.50;4929560;29;20038;-96
2022/06/24 09:46:39;;;;;;;5.97;2.92;;;;;;;25.98;45.47;99195.66;4948307;29;20027;-94
2022/06/24 09:49:29;;;;;;;7.03;3.38;;;;;;;25.88;46.84;99175.03;4934324;28;20130;-95
2022/06/24 09:51:56;;;;;;;;;;;;;;;26.24;46.09;99197.53;4939046;29;20051;-96
2022/06/24 09:54:22;;;;;;;11.07;3.72;;;;;;;26.16;46.60;99165.50;4927169;29;19915;-96
2022/06/24 09:56:50;;;;;;;9.77;3.67;;;;;;;26.32;46.32;99168.81;4892485;29;20505;-95
2022/06/24 10:05:13;;;;;;;8.15;3.38;;;;;;;26.12;45.89;99184.78;4946026;29;20039;-96
2022/06/24 10:07:38;;;;;;;6.63;3.20;;;;;;;26.16;45.22;99179.31;4931430;29;20039;-96
2022/06/24 10:10:05;;;;;;;8.05;3.33;;;;;;;26.32;44.43;99190.13;4949738;29;20094;-95
2022/06/24 10:12:51;;;;;;;;;;;;;;;;;;;;;
2022/06/24 10:15:44;;;;;;;8.25;3.63;;;;;;;26.67;43.89;99189.69;4928478;29;20119;-96
2022/06/24 10:18:13;;;;;;;7.53;3.97;;;;;;;26.52;44.12;99166.66;4908550;29;20103;-94
2022/06/24 10:20:49;;;;;;;6.28;3.38;;;;;;;26.75;43.83;99163.72;4908018;29;20036;-95
2022/06/24 10:24:44;;;;;;;5.38;3.10;;;;;;;27.18;42.97;99199.13;4924980;29;20042;-94
2022/06/24 10:34:21;;;;;;;;;;;;;;;;;;;;;
2022/06/24 10:40:31;;;;;;;6.03;3.30;;;;;;;26.77;43.16;99180.69;4832778;29;20045;-95
2022/06/24 10:43:21;;;;;;;;;;;;;;;;;;;;;
2022/06/24 10:46:13;;;;;;;6.00;3.15;;;;;;;26.64;44.01;99175.84;4907748;29;20168;-95
2022/06/24 10:51:23;;;;;;;8.70;5.35;;;;;;;26.51;45.36;99173.34;5240279;23;20053;-95
2022/06/24 10:54:01;;;;;;;11.63;10.15;;;;;;;26.97;44.35;99178.47;4967779;28;20053;-93
2022/06/24 10:56:59;;;;;;;9.27;3.15;;;;;;;27.17;43.88;99186.50;4998489;28;20120;-95
2022/06/24 10:59:24;;;;;;;11.73;3.60;;;;;;;27.13;44.84;99171.88;4982294;28;20028;-93
2022/06/24 11:01:53;;;;;;;5.30;3.53;;;;;;;27.10;44.48;99178.97;4966540;28;20022;-94
2022/06/24 11:04:28;;;;;;;3.88;2.90;;;;;;;26.92;43.90;99170.53;4963943;28;20035;-96
2022/06/24 11:07:13;;;;;;;7.07;3.15;;;;;;;26.70;45.14;99180.63;4928908;28;20039;-94
2022/06/24 11:09:38;;;;;;;9.50;7.18;;;;;;;26.57;47.01;99180.13;4940538;28;20026;-93
2022/06/24 11:12:07;;;;;;;8.80;3.92;;;;;;;26.45;48.90;99191.44;4924815;28;20119;-93
2022/06/24 11:14:35;;;;;;;8.20;3.67;;;;;;;26.39;50.31;99199.25;4941083;28;20504;-94
2022/06/24 11:17:08;;;;;;;8.38;3.80;;;;;;;26.23;49.65;99187.69;4946733;28;20031;-96
2022/06/24 11:19:43;;;;;;;8.43;4.30;;;;;;;26.16;51.58;99182.84;4945260;28;20542;-95
2022/06/24 11:55:29;;;;;;;6.55;3.65;;;;;;;27.13;44.07;99172.66;5434145;23;20037;-94
2022/06/24 11:58:23;;;;;;;5.95;3.60;;;;;;;27.18;45.29;99146.63;4962181;28;20041;-94
2022/06/24 12:03:43;;;;;;;8.10;3.30;;;;;;;27.47;43.75;99160.63;4865364;29;20121;-95
2022/06/24 12:33:17;;;;;;;6.07;3.20;;;;;;;28.89;37.23;99158.56;5015358;28;20042;-93
2022/06/24 12:36:09;;;;;;;5.93;3.05;;;;;;;28.61;36.52;99158.19;4989808;28;20042;-95
2022/06/24 12:38:38;;;;;;;8.60;3.60;;;;;;;28.56;37.33;99150.28;4964799;28;20121;-94
2022/06/24 12:41:08;;;;;;;6.65;3.55;;;;;;;28.41;37.74;99151.47;4948668;28;20030;-94
2022/06/24 12:43:59;;;;;;;3.70;3.30;;;;;;;28.16;37.89;99149.44;4949552;28;20037;-94
2022/06/24 12:46:29;;;;;;;4.77;3.03;;;;;;;27.85;38.25;99152.88;4974634;28;20029;-93
2022/06/24 12:51:43;;;;;;;6.95;3.15;;;;;;;27.71;38.19;99165.47;4929785;29;20153;-93
2022/06/24 12:54:09;;;;;;;8.43;3.20;;;;;;;27.60;38.71;99168.22;4909454;29;20542;-93
2022/06/24 12:56:49;;;;;;;6.03;3.00;;;;;;;27.39;38.87;99155.06;4909827;29;20031;-93
2022/06/24 12:59:35;;;;;;;8.68;3.22;;;;;;;27.47;38.48;99150.34;4909904;29;20035;-94
2022/06/24 13:02:42;;;;;;;6.28;2.90;;;;;;;27.77;36.99;99154.84;4926319;28;20126;-96
2022/06/24 13:05:44;;;;;;;10.55;6.13;;;;;;;27.94;36.87;99156.09;4850918;29;20049;-94
2022/06/24 13:08:12;;;;;;;5.45;3.42;;;;;;;28.10;35.64;99145.47;4851617;29;20148;-96
2022/06/24 13:10:38;;;;;;;4.25;3.20;;;;;;;28.16;34.13;99145.84;4850582;29;20041;-92
2022/06/24 13:13:10;;;;;;;10.50;3.17;;;;;;;28.56;32.64;99152.28;4849503;29;20455;-95
2022/06/24 13:15:43;;;;;;;8.20;3.20;;;;;;;28.90;33.82;99160.94;4882198;29;20035;-91
2022/06/24 13:18:09;;;;;;;6.47;2.80;;;;;;;29.19;33.11;99166.50;4891095;29;20059;-90
2022/06/24 13:20:42;;;;;;;6.30;2.60;;;;;;;29.17;32.05;99141.13;4919961;29;20498;-90
2022/06/24 13:23:13;;;;;;;13.18;3.47;;;;;;;29.05;32.36;99128.44;4939723;29;20146;-93
2022/06/24 13:25:41;;;;;;;7.22;2.88;;;;;;;29.03;32.11;99136.38;4925094;29;20062;-93
2022/06/24 13:28:11;;;;;;;6.10;3.60;;;;;;;29.19;31.82;99122.91;4924305;29;20042;-94
2022/06/24 13:30:45;;;;;;;2.70;2.22;;;;;;;29.69;30.74;99146.09;4941431;28;20094;-94
2022/06/24 13:33:11;;;;;;;4.97;2.45;;;;;;;30.01;30.01;99149.53;4946764;28;20552;-93
2022/06/24 13:35:37;;;;;;;4.72;2.60;;;;;;;30.18;29.85;99142.28;4963526;28;20061;-92
2022/06/24 13:38:06;;;;;;;2.58;2.15;;;;;;;30.60;29.34;99128.50;4962765;28;20492;-92
2022/06/24 13:40:35;;;;;;;5.47;3.70;;;;;;;30.91;28.98;99114.75;4948033;28;20524;-92
2022/06/24 13:43:01;;;;;;;3.92;2.20;;;;;;;30.75;28.73;99118.84;4947623;28;20026;-92
2022/06/24 13:45:28;;;;;;;5.57;2.45;;;;;;;30.40;29.42;99126.31;4964328;28;20030;-91
2022/06/24 13:47:57;;;;;;;5.53;2.20;;;;;;;30.72;29.48;99138.34;4968515;28;20034;-95
2022/06/24 13:50:26;;;;;;;4.68;2.33;;;;;;;31.36;27.52;99136.94;4964044;28;20057;-93
2022/06/24 13:52:54;;;;;;;6.15;2.45;;;;;;;31.76;27.32;99128.91;4963739;28;20034;-93